Time;durP1;ratioP1;P1;durP2;ratioP2;P2;SDS_P1;SDS_P2;PMS_P1;PMS_P2;Temp;Humidity;BMP_temperature;BMP_pressure;BME280_temperature;BME280_humidity;BME280_pressure;Samples;Min_cycle;Max_cycle;Signal;HPM_P1;HPM_P2
2023/06/13 00:00:44;;;;;;;5.53;5.23;;;28.50;45.60;;;;;;5025202;28;20424;-71
2023/06/13 00:03:13;;;;;;;5.63;5.23;;;28.50;45.60;;;;;;5035380;28;20540;-71
2023/06/13 00:05:45;;;;;;;5.97;5.57;;;28.50;45.60;;;;;;5022457;28;20509;-71
2023/06/13 00:08:17;;;;;;;5.57;5.17;;;28.50;45.90;;;;;;5033894;28;20452;-71
2023/06/13 00:10:47;;;;;;;6.43;5.83;;;28.50;45.70;;;;;;5037413;28;20505;-71
2023/06/13 00:13:16;;;;;;;5.70;5.30;;;28.50;45.80;;;;;;5028849;28;20781;-70
2023/06/13 00:15:49;;;;;;;5.67;5.27;;;28.50;45.80;;;;;;5015248;28;20897;-71
2023/06/13 00:18:19;;;;;;;6.53;6.03;;;28.50;45.90;;;;;;5027486;28;20485;-71
2023/06/13 00:20:50;;;;;;;5.50;5.10;;;28.50;46.10;;;;;;5039422;28;20507;-72
2023/06/13 00:23:18;;;;;;;6.60;6.10;;;28.50;46.10;;;;;;5015446;28;20468;-71
2023/06/13 00:25:47;;;;;;;6.10;5.70;;;28.50;46.00;;;;;;5013081;28;20469;-71
2023/06/13 00:28:16;;;;;;;5.20;4.80;;;28.50;46.10;;;;;;5009457;28;20469;-71
2023/06/13 00:30:45;;;;;;;6.47;5.97;;;28.50;46.10;;;;;;5027531;28;20443;-71
2023/06/13 00:33:16;;;;;;;6.30;5.80;;;28.50;45.90;;;;;;5034048;28;20872;-71
2023/06/13 00:35:46;;;;;;;5.53;5.13;;;28.50;46.00;;;;;;5021721;28;20910;-71
2023/06/13 00:38:23;;;;;;;5.50;5.10;;;28.50;46.10;;;;;;5025844;28;20437;-71
2023/06/13 00:40:52;;;;;;;6.53;6.03;;;28.50;45.90;;;;;;5029825;28;20447;-71
2023/06/13 00:43:20;;;;;;;6.93;6.40;;;28.50;45.90;;;;;;5024316;28;20998;-71
2023/06/13 00:45:49;;;;;;;6.10;5.60;;;28.50;45.90;;;;;;5013709;28;20465;-71
2023/06/13 00:48:18;;;;;;;6.53;6.03;;;28.50;46.00;;;;;;5017042;28;20460;-71
2023/06/13 00:50:48;;;;;;;6.27;5.77;;;28.40;45.90;;;;;;5009608;28;20507;-71
2023/06/13 00:53:19;;;;;;;5.80;5.40;;;28.40;46.00;;;;;;5032366;28;21000;-71
2023/06/13 00:55:48;;;;;;;5.93;5.53;;;28.40;45.90;;;;;;5019898;28;20844;-71
2023/06/13 00:58:17;;;;;;;5.90;5.50;;;28.40;46.00;;;;;;5035491;28;20672;-70
2023/06/13 01:00:46;;;;;;;5.97;5.50;;;28.40;46.00;;;;;;5023236;28;20486;-69
2023/06/13 01:03:16;;;;;;;5.93;5.53;;;28.40;46.00;;;;;;5021429;28;20568;-71
2023/06/13 02:04:26;;;;;;;5.90;5.50;;;28.20;46.30;;;;;;5017823;28;20521;-72
2023/06/13 02:06:56;;;;;;;6.10;5.60;;;28.20;46.40;;;;;;5031353;28;20468;-71
2023/06/13 02:09:24;;;;;;;6.00;5.60;;;28.20;46.40;;;;;;5024801;28;20432;-71
2023/06/13 02:11:52;;;;;;;5.47;5.07;;;28.20;46.30;;;;;;5023508;28;20483;-71
2023/06/13 02:14:21;;;;;;;5.30;4.90;;;28.20;46.40;;;;;;5015822;28;20463;-70
2023/06/13 02:16:51;;;;;;;5.13;4.83;;;28.20;46.40;;;;;;5040105;28;20473;-71
2023/06/13 02:19:20;;;;;;;5.80;5.30;;;28.20;46.40;;;;;;5031920;28;20433;-71
2023/06/13 02:21:51;;;;;;;6.13;5.73;;;28.20;46.50;;;;;;5032411;28;20803;-70
2023/06/13 02:24:20;;;;;;;8.17;5.63;;;28.20;46.40;;;;;;5039434;28;20871;-71
2023/06/13 02:26:49;;;;;;;6.00;5.50;;;28.20;46.50;;;;;;5025181;28;20484;-71
2023/06/13 02:29:20;;;;;;;5.50;5.10;;;28.20;46.50;;;;;;5031999;28;20476;-71
2023/06/13 02:31:49;;;;;;;5.70;5.30;;;28.10;46.50;;;;;;5001910;28;20936;-70
2023/06/13 02:34:17;;;;;;;6.13;5.67;;;28.10;46.50;;;;;;5019834;28;20539;-70
2023/06/13 02:36:45;;;;;;;6.40;5.90;;;28.10;46.50;;;;;;5011443;28;20477;-71
2023/06/13 02:39:15;;;;;;;5.90;5.40;;;28.10;46.40;;;;;;5022762;28;20498;-71
2023/06/13 02:41:44;;;;;;;6.37;5.97;;;28.10;46.50;;;;;;5035128;28;20459;-71
2023/06/13 02:44:12;;;;;;;4.97;4.57;;;28.10;46.30;;;;;;5028249;28;20460;-71
2023/06/13 02:46:40;;;;;;;6.33;5.83;;;28.10;46.40;;;;;;5032589;28;20467;-71
2023/06/13 02:49:09;;;;;;;6.57;5.97;;;28.10;46.50;;;;;;5040270;28;20441;-72
2023/06/13 02:51:38;;;;;;;5.80;5.40;;;28.10;46.50;;;;;;5017070;28;20445;-71
2023/06/13 02:54:07;;;;;;;6.10;5.70;;;28.10;46.40;;;;;;5036591;28;20856;-71
2023/06/13 02:56:37;;;;;;;5.83;5.43;;;28.10;46.50;;;;;;5022259;28;21114;-70
2023/06/13 02:59:05;;;;;;;7.00;5.90;;;28.10;46.60;;;;;;5021283;28;20425;-70
2023/06/13 03:01:34;;;;;;;6.43;5.83;;;28.10;46.60;;;;;;5029138;28;20468;-71
2023/06/13 03:04:08;;;;;;;7.00;5.50;;;28.10;46.50;;;;;;5014132;28;20446;-70
2023/06/13 03:06:40;;;;;;;5.37;4.97;;;28.00;46.50;;;;;;5026979;28;20464;-72
2023/06/13 03:09:12;;;;;;;6.40;5.90;;;28.00;46.60;;;;;;5018858;28;20488;-71
2023/06/13 03:11:43;;;;;;;6.50;6.00;;;28.00;46.40;;;;;;5010626;28;20461;-71
2023/06/13 03:14:12;;;;;;;5.87;5.37;;;28.00;46.50;;;;;;5034347;28;20557;-71
2023/06/13 03:16:40;;;;;;;6.57;6.00;;;28.00;46.70;;;;;;5025450;28;20468;-70
2023/06/13 03:19:10;;;;;;;5.27;4.90;;;28.00;46.60;;;;;;5034563;28;20444;-71
2023/06/13 03:21:39;;;;;;;5.83;5.43;;;28.00;46.70;;;;;;5034648;28;20941;-71
2023/06/13 03:24:11;;;;;;;5.47;5.07;;;28.00;46.70;;;;;;5017741;28;20444;-71
2023/06/13 03:26:39;;;;;;;5.90;5.50;;;28.00;46.80;;;;;;5015378;28;20907;-70
2023/06/13 03:29:13;;;;;;;6.50;6.03;;;28.00;46.80;;;;;;5018963;28;20436;-71
2023/06/13 03:31:42;;;;;;;5.70;5.30;;;28.00;46.80;;;;;;5033421;28;20475;-71
2023/06/13 03:34:10;;;;;;;6.00;5.60;;;28.00;46.80;;;;;;5022227;28;20451;-71
2023/06/13 03:36:39;;;;;;;6.87;6.37;;;27.90;46.80;;;;;;5035423;28;20503;-71
2023/06/13 03:39:08;;;;;;;5.43;5.03;;;27.90;46.80;;;;;;5005905;28;20444;-71
2023/06/13 03:41:36;;;;;;;5.63;5.13;;;27.90;47.00;;;;;;5006702;28;21005;-70
2023/06/13 03:44:05;;;;;;;5.97;5.57;;;27.90;46.80;;;;;;5017071;28;20527;-69
2023/06/13 03:46:36;;;;;;;5.40;5.00;;;27.90;48.10;;;;;;5028973;28;20526;-70
2023/06/13 03:49:05;;;;;;;5.30;4.93;;;27.90;46.90;;;;;;5014007;28;20544;-71
2023/06/13 03:51:34;;;;;;;5.30;5.00;;;27.90;47.00;;;;;;5013200;28;20790;-72
2023/06/13 03:54:04;;;;;;;6.00;5.57;;;27.90;46.90;;;;;;5036451;28;20533;-71
2023/06/13 03:56:32;;;;;;;5.10;4.70;;;27.90;47.00;;;;;;5025686;28;20499;-71
2023/06/13 03:59:01;;;;;;;6.10;5.70;;;27.90;47.00;;;;;;5014889;28;20945;-71
2023/06/13 04:01:30;;;;;;;6.03;5.53;;;27.80;47.00;;;;;;5002781;28;20851;-71
2023/06/13 04:04:00;;;;;;;6.30;5.80;;;27.80;47.00;;;;;;5014719;28;20445;-71
2023/06/13 04:06:28;;;;;;;5.67;5.17;;;27.80;47.00;;;;;;5017240;28;20505;-70
2023/06/13 04:08:58;;;;;;;5.97;5.47;;;27.80;47.00;;;;;;5024564;28;20447;-70
2023/06/13 04:11:29;;;;;;;5.70;5.33;;;27.80;47.00;;;;;;5016838;28;20750;-71
2023/06/13 04:14:01;;;;;;;5.20;4.80;;;27.80;48.20;;;;;;5025765;28;20472;-69
2023/06/13 04:16:30;;;;;;;5.37;4.97;;;27.80;47.00;;;;;;5041269;28;20462;-70
2023/06/13 04:19:01;;;;;;;4.97;4.57;;;27.80;47.00;;;;;;5031415;28;20503;-71
2023/06/13 04:21:30;;;;;;;5.60;5.20;;;27.80;47.10;;;;;;5018062;28;20453;-71
2023/06/13 04:23:58;;;;;;;5.63;5.07;;;27.80;47.20;;;;;;5035339;28;20451;-71
2023/06/13 04:26:29;;;;;;;5.10;4.70;;;27.80;47.10;;;;;;5038531;28;20468;-71
2023/06/13 04:28:58;;;;;;;5.87;5.40;;;27.80;47.10;;;;;;5026094;28;21026;-70
2023/06/13 04:31:34;;;;;;;5.53;5.03;;;27.80;47.10;;;;;;5014667;28;20543;-71
2023/06/13 04:34:07;;;;;;;5.27;4.87;;;27.70;47.00;;;;;;5013695;28;20446;-71
2023/06/13 04:36:36;;;;;;;5.80;5.40;;;27.70;47.00;;;;;;5045605;28;20472;-71
2023/06/13 04:39:06;;;;;;;5.80;5.33;;;27.70;47.10;;;;;;5029760;28;20432;-71
2023/06/13 04:41:38;;;;;;;6.13;5.60;;;27.70;47.10;;;;;;5025900;28;20452;-71
2023/06/13 04:44:09;;;;;;;5.50;5.13;;;27.70;47.10;;;;;;5026818;28;20867;-71
2023/06/13 04:46:38;;;;;;;4.97;4.53;;;27.70;47.10;;;;;;5020632;28;20465;-71
2023/06/13 04:49:08;;;;;;;6.10;5.70;;;27.70;47.30;;;;;;5039417;28;20476;-71
2023/06/13 04:51:37;;;;;;;5.70;5.30;;;27.70;47.10;;;;;;5036732;28;20448;-71
2023/06/13 04:54:09;;;;;;;5.93;5.43;;;27.70;47.20;;;;;;5042311;28;20494;-71
2023/06/13 04:56:38;;;;;;;5.40;5.00;;;27.70;47.30;;;;;;5032631;28;20553;-70
2023/06/13 04:59:09;;;;;;;5.43;5.10;;;27.70;47.10;;;;;;5044533;28;20476;-70
2023/06/13 05:01:37;;;;;;;5.50;5.10;;;27.70;47.20;;;;;;5027294;28;20543;-71
2023/06/13 05:04:08;;;;;;;5.20;4.90;;;27.70;47.10;;;;;;5021510;28;20441;-71
2023/06/13 05:06:38;;;;;;;5.13;4.73;;;27.60;47.10;;;;;;5035607;28;20474;-71
2023/06/13 05:09:07;;;;;;;5.00;4.70;;;27.60;47.10;;;;;;5038261;28;20471;-71
2023/06/13 05:11:36;;;;;;;5.23;4.83;;;27.60;46.40;;;;;;5023218;28;20480;-69
2023/06/13 05:14:04;;;;;;;5.27;4.77;;;27.60;46.90;;;;;;5019631;28;21041;-72
2023/06/13 05:16:34;;;;;;;5.30;4.90;;;27.60;46.80;;;;;;5015449;28;20472;-71
2023/06/13 05:19:05;;;;;;;5.77;4.77;;;27.60;46.90;;;;;;5022725;28;20449;-71
2023/06/13 05:21:36;;;;;;;5.33;4.83;;;27.60;46.60;;;;;;5028419;28;20527;-67
2023/06/13 05:24:05;;;;;;;5.20;4.80;;;27.60;46.60;;;;;;5039248;28;20476;-68
2023/06/13 05:26:34;;;;;;;5.67;5.17;;;27.60;46.60;;;;;;5031070;28;20555;-66
2023/06/13 05:29:05;;;;;;;5.60;5.20;;;27.60;46.80;;;;;;5017477;28;20448;-67
2023/06/13 05:31:34;;;;;;;5.97;5.40;;;27.60;46.20;;;;;;5040083;28;20448;-68
2023/06/13 05:34:03;;;;;;;6.27;5.63;;;27.60;46.70;;;;;;5022268;28;20531;-68
2023/06/13 05:36:35;;;;;;;5.90;5.37;;;27.60;46.20;;;;;;5017780;28;21014;-68
2023/06/13 05:39:06;;;;;;;5.60;5.20;;;27.60;45.60;;;;;;5018359;28;20460;-68
2023/06/13 05:41:40;;;;;;;5.50;5.10;;;27.60;46.30;;;;;;5019305;28;20466;-67
2023/06/13 05:44:09;;;;;;;5.80;5.30;;;27.60;46.40;;;;;;5036568;28;20871;-66
2023/06/13 05:46:37;;;;;;;5.60;5.20;;;27.60;45.90;;;;;;5021026;28;20479;-67
2023/06/13 05:49:06;;;;;;;5.17;4.77;;;27.60;45.80;;;;;;5039594;28;20535;-67
2023/06/13 05:51:36;;;;;;;5.80;5.20;;;27.60;45.70;;;;;;5040702;28;20442;-67
2023/06/13 05:54:05;;;;;;;6.10;5.60;;;27.60;45.90;;;;;;5036841;28;20456;-67
2023/06/13 05:56:36;;;;;;;5.50;5.10;;;27.60;45.60;;;;;;5024915;28;20481;-67
2023/06/13 05:59:05;;;;;;;5.97;5.43;;;27.60;44.90;;;;;;5029768;28;20503;-68
2023/06/13 06:01:35;;;;;;;5.10;4.70;;;27.60;45.90;;;;;;5030332;28;20446;-67
2023/06/13 06:04:03;;;;;;;5.43;5.03;;;27.60;44.80;;;;;;5024150;28;20469;-67
2023/06/13 06:06:32;;;;;;;6.03;5.50;;;27.60;45.10;;;;;;5025058;28;20477;-67
2023/06/13 06:09:02;;;;;;;6.17;5.57;;;27.60;45.20;;;;;;5017896;28;20473;-67
2023/06/13 06:11:31;;;;;;;5.17;4.77;;;27.60;45.40;;;;;;5030142;28;20447;-68
2023/06/13 06:14:00;;;;;;;5.53;5.00;;;27.50;45.50;;;;;;5022221;28;20559;-68
2023/06/13 06:16:29;;;;;;;5.50;5.03;;;27.50;45.30;;;;;;5013412;28;20484;-67
2023/06/13 06:18:57;;;;;;;5.90;5.40;;;27.50;45.60;;;;;;5030896;28;20501;-68
2023/06/13 06:21:26;;;;;;;6.37;5.87;;;27.50;45.50;;;;;;5038719;28;20759;-67
2023/06/13 06:23:55;;;;;;;4.80;4.40;;;27.60;45.60;;;;;;5038454;28;20918;-68
2023/06/13 06:26:24;;;;;;;5.27;4.90;;;27.50;44.70;;;;;;5025646;28;20514;-67
2023/06/13 06:28:53;;;;;;;5.63;5.13;;;27.50;45.50;;;;;;5018964;28;20456;-68
2023/06/13 06:31:24;;;;;;;6.40;6.00;;;27.50;45.10;;;;;;5029812;28;20827;-68
2023/06/13 06:33:52;;;;;;;5.27;4.77;;;27.50;45.10;;;;;;5018290;28;20503;-66
2023/06/13 06:36:22;;;;;;;5.30;4.90;;;27.50;45.10;;;;;;5030409;28;20889;-66
2023/06/13 06:38:51;;;;;;;6.07;5.57;;;27.50;45.40;;;;;;5013698;28;20515;-67
2023/06/13 06:41:20;;;;;;;5.93;5.53;;;27.50;44.80;;;;;;5021916;28;20472;-67
2023/06/13 06:43:49;;;;;;;5.73;5.23;;;27.50;45.00;;;;;;5029664;28;20968;-67
2023/06/13 06:46:18;;;;;;;5.50;5.10;;;27.50;45.00;;;;;;5046123;28;20467;-67
2023/06/13 06:48:47;;;;;;;5.90;5.40;;;27.50;45.50;;;;;;5037148;28;21109;-68
2023/06/13 06:51:15;;;;;;;5.03;4.63;;;27.50;45.10;;;;;;5032238;28;20480;-68
2023/06/13 06:53:44;;;;;;;5.77;5.37;;;27.50;45.00;;;;;;5026443;28;20476;-67
2023/06/13 06:56:12;;;;;;;4.83;4.53;;;27.50;45.00;;;;;;5021146;28;20472;-67
2023/06/13 06:58:41;;;;;;;5.63;5.23;;;27.50;45.30;;;;;;5025495;28;20799;-67
2023/06/13 07:01:13;;;;;;;6.10;5.37;;;27.50;45.20;;;;;;5014417;28;20805;-68
2023/06/13 07:03:41;;;;;;;5.10;4.70;;;27.50;44.80;;;;;;5016024;28;21424;-67
2023/06/13 07:06:11;;;;;;;5.83;5.33;;;27.50;44.60;;;;;;5020549;28;20562;-71
2023/06/13 07:08:39;;;;;;;5.27;4.77;;;27.50;45.10;;;;;;5022979;28;20496;-71
2023/06/13 07:11:08;;;;;;;5.20;4.50;;;27.50;45.30;;;;;;5021574;28;20802;-70
2023/06/13 07:13:37;;;;;;;5.43;4.93;;;27.50;44.80;;;;;;5018322;28;21400;-71
2023/06/13 07:16:25;;;;;;;5.33;4.93;;;27.50;44.80;;;;;;5020581;28;21038;-70
2023/06/13 07:18:54;;;;;;;5.10;4.70;;;27.50;44.50;;;;;;5025742;28;20455;-71
2023/06/13 07:21:23;;;;;;;5.37;4.90;;;27.50;44.00;;;;;;5042479;28;20446;-70
2023/06/13 07:23:51;;;;;;;5.13;4.73;;;27.50;44.50;;;;;;5024544;28;20425;-71
2023/06/13 07:26:34;;;;;;;5.43;5.03;;;27.50;44.10;;;;;;5006838;28;20811;-71
2023/06/13 07:29:04;;;;;;;6.37;4.77;;;27.50;44.70;;;;;;5012822;28;20495;-72
2023/06/13 07:31:34;;;;;;;6.30;5.90;;;27.50;44.80;;;;;;5024155;28;20462;-71
2023/06/13 07:34:02;;;;;;;5.07;4.70;;;27.50;43.90;;;;;;5014035;28;20444;-71
2023/06/13 07:36:32;;;;;;;5.20;4.70;;;27.50;44.50;;;;;;5032958;28;20991;-71
2023/06/13 07:39:09;;;;;;;5.73;4.70;;;27.50;44.00;;;;;;5028379;28;20439;-71
2023/06/13 07:41:38;;;;;;;4.90;4.50;;;27.50;44.70;;;;;;5010617;28;20459;-72
2023/06/13 07:44:07;;;;;;;5.23;4.83;;;27.50;44.60;;;;;;5020524;28;20535;-71
2023/06/13 07:46:37;;;;;;;5.73;5.33;;;27.50;44.50;;;;;;5029896;28;21085;-71
2023/06/13 07:49:06;;;;;;;4.90;4.50;;;27.50;44.80;;;;;;5018541;28;20472;-71
2023/06/13 07:51:35;;;;;;;5.13;4.53;;;27.50;44.50;;;;;;5044546;28;20437;-71
2023/06/13 07:54:04;;;;;;;5.40;5.00;;;27.50;45.40;;;;;;5032799;28;20968;-71
2023/06/13 07:56:33;;;;;;;4.03;3.73;;;27.40;45.40;;;;;;5017214;28;20455;-72
2023/06/13 07:59:02;;;;;;;4.50;4.10;;;27.40;45.30;;;;;;5032425;28;20441;-70
2023/06/13 08:01:32;;;;;;;5.07;4.13;;;27.50;45.40;;;;;;5022104;28;20480;-71
2023/06/13 08:04:02;;;;;;;5.33;4.93;;;27.50;45.10;;;;;;5027876;28;21051;-71
2023/06/13 08:06:31;;;;;;;5.33;4.93;;;27.50;45.40;;;;;;5025362;28;20472;-71
2023/06/13 08:09:00;;;;;;;4.93;4.50;;;27.50;45.30;;;;;;5020941;28;20831;-71
2023/06/13 08:11:28;;;;;;;5.23;4.73;;;27.50;45.40;;;;;;5026619;28;20447;-70
2023/06/13 08:13:57;;;;;;;5.10;4.70;;;27.50;45.60;;;;;;5022928;28;20857;-71
2023/06/13 08:16:27;;;;;;;4.47;4.13;;;27.50;45.90;;;;;;5022894;28;20460;-71
2023/06/13 08:18:56;;;;;;;5.00;4.60;;;27.40;46.20;;;;;;5036703;28;20792;-71
2023/06/13 08:21:26;;;;;;;5.30;4.90;;;27.40;45.10;;;;;;5026430;28;20445;-72
2023/06/13 08:23:55;;;;;;;5.03;4.63;;;27.40;45.70;;;;;;5026166;28;20446;-71
2023/06/13 08:26:25;;;;;;;6.00;5.20;;;27.40;45.90;;;;;;5036485;28;20460;-71
2023/06/13 08:28:54;;;;;;;4.93;4.53;;;27.40;46.00;;;;;;5028488;28;20471;-72
2023/06/13 08:31:23;;;;;;;4.40;4.10;;;27.40;45.40;;;;;;5035885;28;20809;-71
2023/06/13 08:34:12;;;;;;;4.50;4.20;;;27.40;45.60;;;;;;5044664;28;20544;-71
2023/06/13 08:36:45;;;;;;;5.13;4.40;;;27.40;45.90;;;;;;5036355;28;21063;-71
2023/06/13 08:39:15;;;;;;;4.73;4.30;;;27.40;46.10;;;;;;5027140;28;20829;-71
2023/06/13 08:41:45;;;;;;;5.30;4.90;;;27.40;45.70;;;;;;5029002;28;21014;-70
2023/06/13 08:44:15;;;;;;;4.80;4.40;;;27.40;45.90;;;;;;5006436;28;20470;-70
2023/06/13 08:46:44;;;;;;;4.67;4.37;;;27.40;45.70;;;;;;5013291;28;20504;-71
2023/06/13 08:49:13;;;;;;;5.10;4.70;;;27.40;45.70;;;;;;5028702;28;20468;-71
2023/06/13 08:51:45;;;;;;;4.60;4.27;;;27.40;45.60;;;;;;5004609;28;20460;-71
2023/06/13 08:54:17;;;;;;;4.37;4.03;;;27.40;45.70;;;;;;5025459;28;20443;-70
2023/06/13 08:56:47;;;;;;;5.60;5.10;;;27.40;45.60;;;;;;5004221;28;20558;-71
2023/06/13 08:59:21;;;;;;;4.53;4.20;;;27.40;45.60;;;;;;5025542;28;20445;-70
2023/06/13 09:01:50;;;;;;;4.73;4.30;;;27.40;45.70;;;;;;5015549;28;20464;-71
2023/06/13 09:04:19;;;;;;;5.07;4.63;;;27.40;45.60;;;;;;5037768;28;20932;-71
2023/06/13 09:06:50;;;;;;;4.53;4.13;;;27.40;45.70;;;;;;5028909;28;20464;-71
2023/06/13 09:09:21;;;;;;;5.10;4.70;;;27.40;45.30;;;;;;5027297;28;20988;-69
2023/06/13 09:11:51;;;;;;;4.50;4.10;;;27.40;44.90;;;;;;5023321;28;20499;-71
2023/06/13 09:14:20;;;;;;;5.07;4.67;;;27.40;44.90;;;;;;5013108;28;20452;-71
2023/06/13 09:16:53;;;;;;;4.67;4.27;;;27.40;45.60;;;;;;5026012;28;20471;-71
2023/06/13 09:19:22;;;;;;;5.00;4.53;;;27.40;44.90;;;;;;5029279;28;20861;-71
2023/06/13 09:21:51;;;;;;;6.53;4.43;;;27.30;45.40;;;;;;5024141;28;21047;-70
2023/06/13 09:24:21;;;;;;;4.77;4.47;;;27.40;45.00;;;;;;5025464;28;20432;-70
2023/06/13 09:27:08;;;;;;;4.80;4.40;;;27.40;45.10;;;;;;5020614;28;20473;-70
2023/06/13 09:29:37;;;;;;;5.00;4.50;;;27.40;44.70;;;;;;5023440;28;20481;-71
2023/06/13 09:32:10;;;;;;;5.47;5.07;;;27.40;44.50;;;;;;5037984;28;20476;-71
2023/06/13 09:34:40;;;;;;;5.27;4.50;;;27.40;44.80;;;;;;5034513;28;20536;-71
2023/06/13 09:37:11;;;;;;;4.70;4.30;;;27.40;44.80;;;;;;5034816;28;20479;-71
2023/06/13 09:39:50;;;;;;;4.87;4.47;;;27.40;44.50;;;;;;5017699;28;20555;-71
2023/06/13 09:42:33;;;;;;;4.47;4.07;;;27.40;44.40;;;;;;5015561;28;20983;-71
2023/06/13 09:45:08;;;;;;;5.07;4.67;;;27.40;44.00;;;;;;5026332;28;21082;-70
2023/06/13 09:47:37;;;;;;;4.50;4.10;;;27.40;44.70;;;;;;5040951;28;20475;-70
2023/06/13 09:50:08;;;;;;;5.03;4.63;;;27.40;44.30;;;;;;5019433;28;22100;-70
2023/06/13 09:52:36;;;;;;;4.40;4.10;;;27.40;44.50;;;;;;5024686;28;20504;-70
2023/06/13 09:55:08;;;;;;;6.10;4.33;;;27.40;44.60;;;;;;5031093;28;20448;-71
2023/06/13 09:57:37;;;;;;;5.67;4.83;;;27.30;43.80;;;;;;5012127;28;20837;-71
2023/06/13 10:00:27;;;;;;;4.63;4.23;;;27.40;43.60;;;;;;5039251;28;20824;-70
2023/06/13 10:02:56;;;;;;;4.70;4.30;;;27.40;44.50;;;;;;5031617;28;20584;-71
2023/06/13 10:05:36;;;;;;;4.67;4.37;;;27.40;44.80;;;;;;5025892;28;21051;-71
2023/06/13 10:08:05;;;;;;;4.80;4.50;;;27.40;44.20;;;;;;5026405;28;20465;-71
2023/06/13 10:10:36;;;;;;;5.50;5.10;;;27.40;45.10;;;;;;5023988;28;20560;-71
2023/06/13 10:13:09;;;;;;;5.00;4.60;;;27.30;45.00;;;;;;5023410;28;20468;-71
2023/06/13 10:15:42;;;;;;;4.83;4.43;;;27.30;44.30;;;;;;5023418;28;20514;-70
2023/06/13 10:18:14;;;;;;;5.07;4.77;;;27.40;44.00;;;;;;5017473;28;20472;-70
2023/06/13 10:20:46;;;;;;;5.33;4.37;;;27.30;44.50;;;;;;5017244;28;21122;-71
2023/06/13 10:23:18;;;;;;;5.03;4.60;;;27.30;43.60;;;;;;5029933;28;20444;-71
2023/06/13 10:25:52;;;;;;;4.70;4.30;;;27.40;44.10;;;;;;5036465;28;20556;-71
2023/06/13 10:28:34;;;;;;;5.10;4.70;;;27.40;44.80;;;;;;5020261;28;20480;-70
2023/06/13 10:31:13;;;;;;;6.53;4.30;;;27.40;44.80;;;;;;5013145;28;21007;-71
2023/06/13 10:33:56;;;;;;;5.17;4.63;;;27.30;44.40;;;;;;5030492;28;21023;-71
2023/06/13 10:36:40;;;;;;;4.47;4.10;;;27.40;44.80;;;;;;5022103;28;20471;-71
2023/06/13 10:39:41;;;;;;;4.57;4.17;;;27.40;45.00;;;;;;5020131;28;20939;-70
2023/06/13 10:42:20;;;;;;;4.63;4.33;;;27.40;45.20;;;;;;5032427;28;20893;-71
2023/06/13 10:44:57;;;;;;;5.00;4.60;;;27.40;44.10;;;;;;5036171;28;20447;-71
2023/06/13 10:47:28;;;;;;;5.27;4.87;;;27.40;45.20;;;;;;5040447;28;20498;-71
2023/06/13 10:49:59;;;;;;;4.83;4.53;;;27.40;44.70;;;;;;5031234;28;20476;-72
2023/06/13 10:52:30;;;;;;;4.50;4.20;;;27.30;45.40;;;;;;5030222;28;20881;-73
2023/06/13 10:55:01;;;;;;;4.50;4.20;;;27.40;45.30;;;;;;5040472;28;20814;-71
2023/06/13 10:57:49;;;;;;;5.60;5.20;;;27.30;44.30;;;;;;5041383;28;20931;-71
2023/06/13 11:00:26;;;;;;;5.33;4.93;;;27.40;44.40;;;;;;5025918;28;20526;-71
2023/06/13 11:03:02;;;;;;;4.60;4.30;;;27.40;44.30;;;;;;5022438;28;20983;-71
2023/06/13 11:05:34;;;;;;;6.13;3.73;;;27.40;44.90;;;;;;5015534;28;20550;-70
2023/06/13 11:08:15;;;;;;;4.77;4.40;;;27.40;44.30;;;;;;5019515;28;20848;-71
2023/06/13 11:10:45;;;;;;;5.53;5.07;;;27.40;44.20;;;;;;5034011;28;20541;-70
2023/06/13 11:13:21;;;;;;;4.30;4.00;;;27.40;44.30;;;;;;5018326;28;20469;-71
2023/06/13 11:15:50;;;;;;;7.00;4.23;;;27.40;44.80;;;;;;5013678;28;21070;-71
2023/06/13 11:18:37;;;;;;;4.57;4.27;;;27.40;44.80;;;;;;5012776;28;20469;-71
2023/06/13 11:21:07;;;;;;;4.97;4.50;;;27.40;45.00;;;;;;5026266;28;20451;-71
2023/06/13 11:23:45;;;;;;;5.70;5.20;;;27.40;44.50;;;;;;5023246;28;20555;-70
2023/06/13 11:26:19;;;;;;;4.97;4.57;;;27.40;45.00;;;;;;5021261;28;20468;-70
2023/06/13 11:28:51;;;;;;;4.80;4.40;;;27.40;44.30;;;;;;5039891;28;20444;-71
2023/06/13 11:31:21;;;;;;;5.03;4.63;;;27.40;43.30;;;;;;5038723;28;20493;-71
2023/06/13 11:33:52;;;;;;;4.57;4.20;;;27.40;43.50;;;;;;5041429;28;20805;-71
2023/06/13 11:36:24;;;;;;;5.17;4.77;;;27.40;44.30;;;;;;5028065;28;20471;-71
2023/06/13 11:39:02;;;;;;;4.93;4.50;;;27.40;44.00;;;;;;5036009;28;20806;-71
2023/06/13 11:41:32;;;;;;;4.87;4.47;;;27.40;42.80;;;;;;5024684;28;21021;-71
2023/06/13 11:44:02;;;;;;;4.60;4.20;;;27.40;43.50;;;;;;5036325;28;20510;-72
2023/06/13 11:46:31;;;;;;;5.10;4.60;;;27.50;43.30;;;;;;5027144;28;21003;-71
2023/06/13 11:49:00;;;;;;;4.87;4.47;;;27.50;44.00;;;;;;5031694;28;20449;-71
2023/06/13 11:51:31;;;;;;;4.73;4.43;;;27.50;43.70;;;;;;5010064;28;20836;-71
2023/06/13 11:54:01;;;;;;;4.40;3.80;;;27.50;44.20;;;;;;5041192;28;20444;-71
2023/06/13 11:56:34;;;;;;;4.67;4.37;;;27.40;44.20;;;;;;5027508;28;21054;-71
2023/06/13 11:59:16;;;;;;;4.40;4.10;;;27.50;44.80;;;;;;5030583;28;20536;-72
2023/06/13 12:01:52;;;;;;;4.80;4.40;;;27.50;45.00;;;;;;5031010;28;20448;-70
2023/06/13 12:04:22;;;;;;;4.13;3.83;;;27.50;42.80;;;;;;5026083;28;20440;-71
2023/06/13 12:06:54;;;;;;;4.73;4.33;;;27.40;42.50;;;;;;5034411;28;20649;-72
2023/06/13 12:09:24;;;;;;;5.97;4.80;;;27.50;43.60;;;;;;5016671;28;20827;-68
2023/06/13 12:11:52;;;;;;;4.53;4.20;;;27.50;44.30;;;;;;5014346;28;20472;-67
2023/06/13 12:14:23;;;;;;;4.73;4.43;;;27.50;43.90;;;;;;5032839;28;20471;-66
2023/06/13 12:16:54;;;;;;;5.33;4.83;;;27.50;44.50;;;;;;5034245;28;21054;-67
2023/06/13 12:19:24;;;;;;;4.90;4.60;;;27.50;44.30;;;;;;5021352;28;20471;-67
2023/06/13 12:21:58;;;;;;;5.00;4.60;;;27.50;44.00;;;;;;5019516;28;20559;-68
2023/06/13 12:24:28;;;;;;;4.63;4.33;;;27.50;44.10;;;;;;5021202;28;20433;-67
2023/06/13 12:26:57;;;;;;;4.53;4.23;;;27.50;44.30;;;;;;5027880;28;20581;-67
2023/06/13 12:29:28;;;;;;;5.87;5.23;;;27.50;44.30;;;;;;5034488;28;20449;-66
2023/06/13 12:32:03;;;;;;;5.32;4.93;;;27.50;43.90;;;;;;5021150;28;20838;-67
2023/06/13 12:34:34;;;;;;;5.07;4.67;;;27.50;42.70;;;;;;5019676;28;20198;-67
2023/06/13 12:37:06;;;;;;;4.47;4.17;;;27.60;42.70;;;;;;5018014;28;20503;-67
2023/06/13 12:39:35;;;;;;;4.43;4.13;;;27.60;43.60;;;;;;5021787;28;20445;-68
2023/06/13 12:42:05;;;;;;;5.30;4.80;;;27.60;43.90;;;;;;5028553;28;20472;-67
2023/06/13 12:44:36;;;;;;;5.03;4.63;;;27.50;42.90;;;;;;5014243;28;20883;-66
2023/06/13 12:47:07;;;;;;;4.37;4.07;;;27.50;43.00;;;;;;5031970;28;21014;-67
2023/06/13 12:49:36;;;;;;;4.73;4.43;;;27.60;43.20;;;;;;5014653;28;20499;-68
2023/06/13 12:52:06;;;;;;;4.43;4.13;;;27.60;43.30;;;;;;5014413;28;20881;-67
2023/06/13 12:54:36;;;;;;;5.60;5.17;;;27.60;43.90;;;;;;5027040;28;20440;-68
2023/06/13 12:57:08;;;;;;;4.27;3.97;;;27.60;43.50;;;;;;5016916;28;20488;-67
2023/06/13 12:59:42;;;;;;;4.40;4.10;;;27.60;43.80;;;;;;5019043;28;20950;-68
2023/06/13 13:02:12;;;;;;;4.87;4.47;;;27.60;43.90;;;;;;5017721;28;20985;-67
2023/06/13 13:04:43;;;;;;;5.00;4.60;;;27.60;43.40;;;;;;5026403;28;20472;-67
2023/06/13 13:07:12;;;;;;;5.20;4.80;;;27.60;42.90;;;;;;5014791;28;20485;-67
2023/06/13 13:09:44;;;;;;;4.57;4.27;;;27.60;42.60;;;;;;5018702;28;20528;-67
2023/06/13 13:12:14;;;;;;;5.13;4.73;;;27.60;42.30;;;;;;5025054;28;20491;-67
2023/06/13 13:14:45;;;;;;;3.90;3.60;;;27.60;43.20;;;;;;5039516;28;20457;-68
2023/06/13 13:17:14;;;;;;;5.07;4.70;;;27.60;43.50;;;;;;5019741;28;20471;-67
2023/06/13 13:19:45;;;;;;;5.00;4.60;;;27.60;43.70;;;;;;5031103;28;20463;-68
2023/06/13 13:22:13;;;;;;;4.93;4.53;;;27.60;43.60;;;;;;5019875;28;20510;-67
2023/06/13 13:24:42;;;;;;;5.03;4.63;;;27.60;43.80;;;;;;5011955;28;20428;-67
2023/06/13 13:27:11;;;;;;;5.80;4.83;;;27.60;42.90;;;;;;5031210;28;20487;-68
2023/06/13 13:29:40;;;;;;;4.60;4.20;;;27.60;43.40;;;;;;5028115;28;20470;-68
2023/06/13 13:32:10;;;;;;;4.63;4.33;;;27.60;43.50;;;;;;5024551;28;20515;-67
2023/06/13 13:34:39;;;;;;;5.07;4.67;;;27.60;44.00;;;;;;5010354;28;20495;-67
2023/06/13 13:37:08;;;;;;;4.37;4.03;;;27.60;45.10;;;;;;5024607;28;20968;-68
2023/06/13 13:39:36;;;;;;;5.70;4.20;;;27.70;44.10;;;;;;5043619;28;20486;-68
2023/06/13 13:42:06;;;;;;;5.50;4.57;;;27.60;44.10;;;;;;5040313;28;20469;-68
2023/06/13 13:44:52;;;;;;;4.97;4.47;;;27.70;44.40;;;;;;5026545;28;20543;-66
2023/06/13 13:47:22;;;;;;;4.40;4.10;;;27.70;43.70;;;;;;5025167;28;20464;-66
2023/06/13 13:49:51;;;;;;;4.90;4.50;;;27.70;43.90;;;;;;5036073;28;20448;-65
2023/06/13 13:52:20;;;;;;;4.70;4.37;;;27.70;42.50;;;;;;5035632;28;20555;-67
2023/06/13 13:54:48;;;;;;;4.40;4.10;;;27.70;42.60;;;;;;5025975;28;20448;-66
2023/06/13 13:57:17;;;;;;;4.70;4.10;;;27.70;42.90;;;;;;5042055;28;20499;-65
2023/06/13 13:59:49;;;;;;;4.73;4.23;;;27.70;42.90;;;;;;5039981;28;20438;-67
2023/06/13 14:02:18;;;;;;;4.70;4.40;;;27.70;42.60;;;;;;5017054;28;20538;-66
2023/06/13 14:04:48;;;;;;;4.53;4.23;;;27.70;43.40;;;;;;5030636;28;20453;-66